Afton, CA

12:57 AM PDT on August 31, 2014 (GMT -0700)
Behring Ranch | Change Station
CLOSE
Current Station
Personal Weather Station
Location: Colusa, CA
Elevation: 52 ft
Nearby Weather Stations

Elev 52 ft 39.34 °N, 121.93 °W | Updated 46 seconds ago

Clear
Clear
63.0 °F
Feels Like 63.0 °F
N
2.0
Wind Variable Wind from East

Today
High -- | Low -- °F
--% Chance of Precip.
Yesterday
High -- | Low -- °F
Precip. -- in
6:35 AM 7:40 PM
Waxing Crescent, 28% visible
Pressure 29.82 in
Visibility 10.0 miles
Clouds Clear
Dew Point 54 °F
Humidity 73%
Rainfall 0.00 in
Snow Depth Not available.
UV 0 out of 12
Pollen 9.20 out of 12
Ozone Good
Flu Activity Not available.
METAR KOVE 310753Z AUTO 00000KT 10SM CLR 25/09 A2982 RMK AO2 SLP098 T02500089 403560178

More Conditions Fewer Conditions

Pressure 29.82 in
Visibility 10.0 miles
Clouds Clear
Dew Point 54 °F
Humidity 73%
Rainfall 0.00 in
Snow Depth Not available.
UV 0 out of 12
Pollen 9.20 out of 12
Ozone Good
Flu Activity Not available.
METAR KOVE 310753Z AUTO 00000KT 10SM CLR 25/09 A2982 RMK AO2 SLP098 T02500089 403560178

More Conditions Fewer Conditions

10-Day Weather Forecast

Almanac

Astronomy

Aug. 31, 2014 Rise Set
Actual Time 6:35 AM PDT 7:40 PM PDT
Civil Twilight 6:07 AM PDT 8:07 PM PDT
Nautical Twilight 5:34 AM PDT 8:40 PM PDT
Astronomical Twilight 5:00 AM PDT 9:14 PM PDT
Moon 12:25 PM PDT 11:00 PM PDT
Length of Visible Light 13h 59m
Length of Day
13h 04m
Tomorrow will be 2m 29s shorter.
Waxing Crescent, 28% of the Moon is Illuminated
Today
Waxing Crescent
Sep 2
First Quarter
Sep 8
Full
Sep 15
Last Quarter
Sep 24
New

Today's Extremes

State Highs State Lows

Community

WunderPhotos

Upload Photos

1,748,809 photos uploaded!

Nearby

Air Quality

  Air Quality AQ Index Pollutant
Yesterday Moderate
OZONE
Current Good
OZONE
Saturday Moderate
OZONE
Sunday Moderate
OZONE
Monday Moderate
OZONE
Tuesday Moderate
OZONE
Wednesday Moderate
OZONE

Snow Depth

Station Depth Elevation
CSS Lab 2 in 6900 ft
Squaw Valley 0 in 8200 ft
Tahoe City Cross 0 in 6750 ft
Rubicon #2 0 in 7500 ft
Echo Peak 1 in 7800 ft

Earthquake Activity

City Distance Mag. Time & Date
The Geysers, California 64 miles 2.7 2:53 PM PDT
2014-08-29
Minimum magnitude displayed is 2.5.

Coastal Water Temperatures

Place Temperature
No Stations Reporting

Nearby Weather Stations